Time;durP1;ratioP1;P1;durP2;ratioP2;P2;SDS_P1;SDS_P2;PMS_P1;PMS_P2;Temp;Humidity;BMP_temperature;BMP_pressure;BME280_temperature;BME280_humidity;BME280_pressure;Samples;Min_cycle;Max_cycle;Signal;HPM_P1;HPM_P2
2023/01/11 01:06:37;;;;;;;3.20;1.80;;;;;;;-8.69;100.00;102245.07;105830;1291;601206;-81
2023/01/11 01:09:26;;;;;;;2.20;1.70;;;;;;;-8.70;100.00;102246.36;108495;1266;63098;-80
2023/01/11 01:14:24;;;;;;;3.40;1.80;;;;;;;-8.68;100.00;102241.08;108401;1267;61521;-81
2023/01/11 01:15:20;;;;;;;4.00;1.80;;;;;;;-8.63;100.00;102242.12;108445;1266;73409;-80
2023/01/11 01:18:08;;;;;;;3.80;1.30;;;;;;;-8.56;100.00;102241.30;108462;1266;70308;-81
2023/01/11 01:20:55;;;;;;;4.30;1.80;;;;;;;-8.50;100.00;102247.60;108503;1263;139731;-81
2023/01/11 01:23:42;;;;;;;5.60;1.90;;;;;;;-8.49;100.00;102252.45;108630;1265;59540;-80
2023/01/11 01:26:30;;;;;;;6.10;1.70;;;;;;;-8.48;100.00;102265.77;108607;1265;60002;-81
2023/01/11 01:29:17;;;;;;;3.30;1.80;;;;;;;-8.47;100.00;102270.73;108599;1263;73947;-81
2023/01/11 01:32:04;;;;;;;4.10;2.10;;;;;;;-8.47;100.00;102269.83;108654;1263;68603;-81
2023/01/11 01:34:53;;;;;;;5.20;1.50;;;;;;;-8.46;100.00;102275.24;108581;1266;73904;-81
2023/01/11 01:37:40;;;;;;;7.10;1.70;;;;;;;-8.47;100.00;102284.09;108593;1264;63445;-81
2023/01/11 01:40:27;;;;;;;3.00;1.70;;;;;;;-8.46;100.00;102287.36;108552;1265;60647;-81
2023/01/11 01:43:16;;;;;;;3.50;1.90;;;;;;;-8.47;100.00;102292.09;108826;1260;73048;-81
2023/01/11 01:46:03;;;;;;;2.40;1.40;;;;;;;-8.49;100.00;102287.27;108827;1260;69658;-81
2023/01/11 01:48:57;;;;;;;2.80;1.60;;;;;;;-8.50;100.00;102288.08;108791;1260;73667;-81
2023/01/11 01:51:50;;;;;;;4.80;2.20;;;;;;;-8.52;100.00;102294.75;108817;1260;59335;-81
2023/01/11 01:54:40;;;;;;;7.20;1.90;;;;;;;-8.57;100.00;102292.44;108821;1260;60030;-82
2023/01/11 01:57:29;;;;;;;2.00;1.00;;;;;;;-8.61;100.00;102296.94;108743;1263;74030;-81
2023/01/11 02:00:17;;;;;;;3.60;1.40;;;;;;;-8.63;100.00;102296.10;108800;1260;68678;-81
2023/01/11 02:03:04;;;;;;;3.20;1.60;;;;;;;-8.69;100.00;102280.92;108743;1263;73188;-81
2023/01/11 02:05:52;;;;;;;7.20;2.10;;;;;;;-8.77;100.00;102277.43;108774;1260;58968;-80
2023/01/11 02:08:40;;;;;;;3.10;1.60;;;;;;;-8.83;100.00;102279.46;108735;1262;59064;-80
2023/01/11 02:11:30;;;;;;;2.70;1.40;;;;;;;-8.90;100.00;102280.09;108738;1260;74123;-81
2023/01/11 02:14:18;;;;;;;6.20;2.10;;;;;;;-8.94;100.00;102285.17;108720;1262;68877;-81
2023/01/11 02:17:07;;;;;;;4.00;2.00;;;;;;;-9.00;100.00;102283.95;108789;1260;73852;-80
2023/01/11 02:19:56;;;;;;;6.00;2.40;;;;;;;-9.05;100.00;102288.20;108724;1263;62347;-81
2023/01/11 02:22:49;;;;;;;3.30;1.80;;;;;;;-9.10;100.00;102284.62;108755;1260;60597;-81
2023/01/11 02:26:07;;;;;;;3.50;2.00;;;;;;;-9.14;100.00;102279.96;108783;1260;74282;-81
2023/01/11 02:29:16;;;;;;;3.30;1.60;;;;;;;-9.17;100.00;102283.40;108757;1262;69882;-81
2023/01/11 02:32:13;;;;;;;7.20;2.40;;;;;;;-9.21;100.00;102286.14;108781;1260;72606;-81
2023/01/11 02:35:39;;;;;;;5.70;2.10;;;;;;;-9.26;100.00;102289.84;108778;1260;61554;-81
2023/01/11 02:38:32;;;;;;;4.10;2.50;;;;;;;-9.30;100.00;102283.94;108792;1260;59483;-81
2023/01/11 02:41:25;;;;;;;9.20;2.50;;;;;;;-9.30;100.00;102286.95;108698;1263;74129;-80
2023/01/11 02:47:23;;;;;;;7.90;2.30;;;;;;;-9.32;100.00;102285.11;108696;1260;72427;-81
2023/01/11 02:50:45;;;;;;;8.90;2.70;;;;;;;-9.33;100.00;102275.48;108761;1260;62051;-81
2023/01/11 02:53:41;;;;;;;9.70;2.60;;;;;;;-9.38;100.00;102265.39;108759;1260;60344;-81
2023/01/11 02:56:30;;;;;;;5.70;2.00;;;;;;;-9.45;100.00;102274.89;108800;1260;74170;-81
2023/01/11 02:59:22;;;;;;;3.40;1.90;;;;;;;-9.54;100.00;102278.12;108782;1260;68955;-81
2023/01/11 03:02:09;;;;;;;7.70;2.50;;;;;;;-9.62;100.00;102283.77;108664;1260;73685;-80
2023/01/11 03:04:57;;;;;;;10.60;2.20;;;;;;;-9.65;100.00;102277.79;108915;1257;60366;-81
2023/01/11 03:07:47;;;;;;;4.20;2.20;;;;;;;-9.66;100.00;102274.35;109028;1256;60394;-80
2023/01/11 03:10:41;;;;;;;3.40;1.90;;;;;;;-9.67;100.00;102273.02;108953;1257;74458;-81
2023/01/11 03:13:53;;;;;;;9.00;2.00;;;;;;;-9.70;100.00;102272.87;108910;1257;69647;-80
2023/01/11 03:16:53;;;;;;;6.80;2.20;;;;;;;-9.73;100.00;102274.52;108870;1257;73668;-81
2023/01/11 03:19:58;;;;;;;9.90;2.80;;;;;;;-9.76;100.00;102276.25;108971;1256;60724;-82
2023/01/11 03:23:03;;;;;;;8.80;2.50;;;;;;;-9.81;100.00;102272.54;108936;1257;61343;-80
2023/01/11 03:25:53;;;;;;;6.20;2.50;;;;;;;-9.82;100.00;102274.35;109095;1257;74548;-81
2023/01/11 03:29:03;;;;;;;10.00;2.80;;;;;;;-9.86;100.00;102274.33;108950;1257;68497;-81
2023/01/11 03:32:32;;;;;;;10.70;2.70;;;;;;;-9.89;100.00;102276.98;109049;1257;73534;-81
2023/01/11 03:35:41;;;;;;;7.10;2.60;;;;;;;-9.90;100.00;102286.17;108915;1257;62134;-82
2023/01/11 03:38:50;;;;;;;8.40;1.90;;;;;;;-9.90;100.00;102283.89;109140;1257;59122;-80
2023/01/11 03:41:38;;;;;;;11.90;2.80;;;;;;;-9.89;100.00;102281.41;108923;1257;73430;-81
2023/01/11 03:44:27;;;;;;;10.00;2.70;;;;;;;-9.88;100.00;102279.36;108973;1257;70044;-81
2023/01/11 03:47:14;;;;;;;9.10;2.40;;;;;;;-9.89;100.00;102284.01;108936;1257;72249;-81
2023/01/11 03:50:03;;;;;;;8.20;2.70;;;;;;;-9.90;100.00;102281.63;108907;1257;60480;-79
2023/01/11 03:52:51;;;;;;;5.00;2.00;;;;;;;-9.91;100.00;102279.06;108969;1257;61425;-81
2023/01/11 03:55:39;;;;;;;4.10;2.50;;;;;;;-9.95;100.00;102281.20;108920;1257;73946;-81
2023/01/11 07:03:50;;;;;;;6.30;2.80;;;;;;;-10.48;100.00;102337.02;105821;1292;600430;-80
2023/01/11 07:06:38;;;;;;;14.30;4.50;;;;;;;-10.39;100.00;102345.96;108334;1266;63909;-79
2023/01/11 07:09:25;;;;;;;13.00;3.40;;;;;;;-10.28;100.00;102352.87;108344;1266;62819;-81
2023/01/11 07:12:13;;;;;;;6.90;3.00;;;;;;;-10.17;100.00;102347.73;108351;1266;74324;-79
2023/01/11 07:15:01;;;;;;;7.60;3.20;;;;;;;-10.06;100.00;102339.21;108361;1267;69804;-80
2023/01/11 07:17:56;;;;;;;6.20;2.70;;;;;;;-9.93;100.00;102345.12;108254;1263;178041;-80
2023/01/11 07:20:44;;;;;;;6.30;3.10;;;;;;;-9.79;100.00;102339.27;108462;1266;61663;-80
2023/01/11 07:23:31;;;;;;;6.30;3.00;;;;;;;-9.67;100.00;102335.32;108428;1265;62374;-80
2023/01/11 07:26:20;;;;;;;6.70;2.90;;;;;;;-9.56;100.00;102334.55;108406;1264;73358;-81
2023/01/11 07:29:08;;;;;;;6.20;3.30;;;;;;;-9.43;100.00;102336.20;108455;1264;70584;-80
2023/01/11 07:31:56;;;;;;;6.40;3.10;;;;;;;-9.35;100.00;102331.78;108879;1256;74780;-80
2023/01/11 07:34:43;;;;;;;8.40;3.70;;;;;;;-9.28;100.00;102328.96;108791;1257;60168;-81
2023/01/11 07:37:31;;;;;;;8.00;3.60;;;;;;;-9.21;100.00;102330.26;108926;1256;62457;-80
2023/01/11 07:40:19;;;;;;;5.70;3.20;;;;;;;-9.13;100.00;102323.17;108969;1256;74006;-80
2023/01/11 07:43:13;;;;;;;6.40;3.00;;;;;;;-9.03;100.00;102322.20;108825;1259;70863;-80
2023/01/11 07:46:01;;;;;;;8.60;3.90;;;;;;;-8.95;100.00;102328.64;108753;1257;72645;-78
2023/01/11 07:48:48;;;;;;;6.20;2.60;;;;;;;-8.87;100.00;102324.21;108857;1259;63340;-81
2023/01/11 07:51:36;;;;;;;7.10;2.80;;;;;;;-8.81;100.00;102322.40;108848;1257;61176;-80
2023/01/11 07:54:23;;;;;;;7.90;3.20;;;;;;;-8.78;100.00;102324.66;108835;1257;73905;-80
2023/01/11 07:57:29;;;;;;;9.10;3.20;;;;;;;-8.74;100.00;102328.27;108960;1256;67495;-79
2023/01/11 08:00:17;;;;;;;9.20;3.20;;;;;;;-8.70;100.00;102335.77;108860;1257;74501;-80
2023/01/11 08:03:04;;;;;;;5.50;3.10;;;;;;;-8.70;100.00;102339.64;108808;1256;61282;-80
2023/01/11 08:05:53;;;;;;;7.90;3.80;;;;;;;-8.70;100.00;102345.16;108881;1260;61253;-81
2023/01/11 08:08:41;;;;;;;6.50;3.20;;;;;;;-8.69;100.00;102335.48;108845;1256;75240;-80
2023/01/11 08:14:40;;;;;;;12.10;4.40;;;;;;;-8.53;100.00;102343.21;108839;1256;76131;-81
2023/01/11 08:17:28;;;;;;;8.60;4.30;;;;;;;-8.49;100.00;102345.43;108786;1256;61981;-80
2023/01/11 08:20:15;;;;;;;8.20;3.40;;;;;;;-8.46;100.00;102339.90;108814;1256;62598;-81
2023/01/11 08:23:03;;;;;;;6.70;3.30;;;;;;;-8.42;100.00;102338.05;108819;1257;75392;-80
2023/01/11 08:25:55;;;;;;;7.70;3.30;;;;;;;-8.38;100.00;102332.58;108800;1257;70406;-80
2023/01/11 08:28:43;;;;;;;9.30;3.50;;;;;;;-8.34;100.00;102332.65;108879;1256;74850;-80
2023/01/11 08:31:30;;;;;;;5.80;3.00;;;;;;;-8.32;100.00;102330.17;108862;1257;62626;-80
2023/01/11 08:34:17;;;;;;;10.30;3.50;;;;;;;-8.30;100.00;102332.16;108866;1257;62909;-81
2023/01/11 08:37:05;;;;;;;7.10;4.10;;;;;;;-8.25;100.00;102328.31;108796;1257;74357;-80
2023/01/11 08:39:54;;;;;;;10.60;4.50;;;;;;;-8.24;100.00;102318.84;108877;1256;70907;-81
2023/01/11 08:42:42;;;;;;;10.70;3.40;;;;;;;-8.23;100.00;102318.59;108870;1256;74717;-81
2023/01/11 08:45:29;;;;;;;10.70;3.80;;;;;;;-8.20;100.00;102314.86;108778;1259;62744;-81
2023/01/11 08:48:17;;;;;;;7.20;3.70;;;;;;;-8.13;100.00;102308.73;108856;1256;61442;-81
2023/01/11 08:51:04;;;;;;;8.80;3.80;;;;;;;-8.03;100.00;102297.51;108829;1257;75121;-81
2023/01/11 08:53:52;;;;;;;8.30;3.90;;;;;;;-7.90;100.00;102290.04;108851;1256;70940;-81
2023/01/11 08:56:39;;;;;;;14.00;3.90;;;;;;;-7.81;100.00;102287.52;108799;1256;74350;-81
2023/01/11 08:59:27;;;;;;;9.30;3.60;;;;;;;-7.72;100.00;102290.85;108871;1256;61813;-80
2023/01/11 09:02:14;;;;;;;9.50;4.00;;;;;;;-7.65;100.00;102289.08;109208;1253;61270;-80
2023/01/11 09:05:02;;;;;;;16.40;4.80;;;;;;;-7.61;100.00;102282.36;109110;1252;76697;-81
2023/01/11 09:07:49;;;;;;;10.90;4.40;;;;;;;-7.56;100.00;102278.98;109203;1253;70740;-80
2023/01/11 09:10:37;;;;;;;11.30;4.20;;;;;;;-7.47;100.00;102277.07;109126;1253;74600;-81
2023/01/11 09:13:25;;;;;;;7.90;3.50;;;;;;;-7.37;100.00;102273.11;109128;1253;61619;-80
2023/01/11 09:16:12;;;;;;;10.10;3.90;;;;;;;-7.23;100.00;102271.49;109101;1254;62389;-80
2023/01/11 09:19:00;;;;;;;7.10;3.60;;;;;;;-7.06;100.00;102266.13;109102;1252;73751;-81
2023/01/11 09:21:47;;;;;;;6.40;3.00;;;;;;;-6.91;100.00;102262.45;109197;1253;70126;-80
2023/01/11 09:24:35;;;;;;;10.00;3.50;;;;;;;-6.81;100.00;102263.09;109135;1253;74235;-81
2023/01/11 09:27:23;;;;;;;9.80;3.90;;;;;;;-6.73;100.00;102262.98;109145;1253;61006;-80
2023/01/11 09:30:11;;;;;;;9.10;4.40;;;;;;;-6.69;100.00;102265.72;109165;1254;62571;-81
2023/01/11 09:32:58;;;;;;;13.60;3.50;;;;;;;-6.68;100.00;102264.15;109105;1252;74918;-81
2023/01/11 09:35:48;;;;;;;8.10;3.70;;;;;;;-6.64;100.00;102264.21;109036;1253;70779;-81
2023/01/11 09:38:38;;;;;;;9.40;3.90;;;;;;;-6.57;100.00;102255.45;109075;1253;74900;-81
2023/01/11 09:43:38;;;;;;;13.40;4.90;;;;;;;-6.50;100.00;102245.73;105999;1293;600904;-81
2023/01/11 09:46:26;;;;;;;17.50;4.70;;;;;;;-6.48;100.00;102240.06;108618;1266;60882;-81
2023/01/11 09:49:17;;;;;;;8.40;3.90;;;;;;;-6.47;100.00;102236.66;108314;1267;61280;-81
2023/01/11 09:52:32;;;;;;;7.70;3.60;;;;;;;-6.46;100.00;102234.25;108198;1266;74324;-81
2023/01/11 09:55:26;;;;;;;14.20;5.20;;;;;;;-6.41;100.00;102233.45;108215;1268;69838;-81
2023/01/11 13:06:46;;;;;;;12.70;4.80;;;;;;;-7.27;100.00;102136.53;105615;1291;599673;-81
2023/01/11 13:09:57;;;;;;;9.40;3.70;;;;;;;-7.27;100.00;102145.77;108300;1267;63143;-81
2023/01/11 13:13:11;;;;;;;5.40;3.40;;;;;;;-7.25;100.00;102136.02;108241;1267;62734;-81
2023/01/11 13:16:03;;;;;;;12.10;5.10;;;;;;;-7.24;100.00;102135.56;108090;1267;73200;-81
2023/01/11 13:18:59;;;;;;;13.20;4.60;;;;;;;-7.22;100.00;102131.29;107990;1267;164529;-80
2023/01/11 13:21:52;;;;;;;11.00;4.10;;;;;;;-7.20;100.00;102134.00;108474;1265;75111;-82
2023/01/11 13:24:39;;;;;;;;;;;;;;;-7.18;100.00;102141.63;108441;1266;61905;-81
2023/01/11 13:27:27;;;;;;;9.40;4.00;;;;;;;-7.18;100.00;102147.17;108448;1265;61299;-82
2023/01/11 13:30:16;;;;;;;5.90;2.70;;;;;;;-7.20;100.00;102146.39;108423;1266;74725;-79
2023/01/11 13:33:06;;;;;;;8.10;3.80;;;;;;;-7.21;100.00;102145.98;108394;1265;68749;-81
2023/01/11 13:35:56;;;;;;;10.80;5.00;;;;;;;-7.25;100.00;102151.57;108456;1265;74973;-82
2023/01/11 13:38:54;;;;;;;8.00;3.40;;;;;;;-7.28;100.00;102160.52;108386;1265;62974;-80
2023/01/11 13:41:45;;;;;;;10.50;5.50;;;;;;;-7.33;100.00;102158.06;108443;1265;62503;-80
2023/01/11 13:44:34;;;;;;;11.40;4.30;;;;;;;-7.38;100.00;102152.96;108412;1268;75421;-81
2023/01/11 13:47:36;;;;;;;15.30;5.00;;;;;;;-7.42;100.00;102159.98;108488;1265;71081;-81
2023/01/11 13:50:29;;;;;;;11.10;5.10;;;;;;;-7.46;100.00;102158.89;108402;1266;73645;-81
2023/01/11 13:53:40;;;;;;;8.20;3.50;;;;;;;-7.50;100.00;102150.57;108411;1263;64019;-80
2023/01/11 13:56:33;;;;;;;8.50;3.80;;;;;;;-7.51;100.00;102155.00;108362;1263;63018;-80
2023/01/11 13:59:24;;;;;;;10.70;3.50;;;;;;;-7.53;100.00;102152.38;108602;1263;75190;-80
2023/01/11 14:02:55;;;;;;;14.30;5.00;;;;;;;-7.55;100.00;102151.65;108473;1263;69930;-80
2023/01/11 14:05:55;;;;;;;9.90;4.00;;;;;;;-7.58;100.00;102146.19;107617;1272;74833;-80
2023/01/11 14:09:02;;;;;;;8.70;3.30;;;;;;;-7.59;100.00;102140.77;108518;1269;64146;-81
2023/01/11 14:12:24;;;;;;;13.80;4.40;;;;;;;-7.60;100.00;102143.02;108404;1264;61198;-80
2023/01/11 14:15:14;;;;;;;6.20;3.70;;;;;;;-7.64;100.00;102145.44;108526;1263;74040;-82
2023/01/11 14:18:17;;;;;;;7.50;3.70;;;;;;;-7.70;100.00;102140.55;108408;1264;69816;-79
2023/01/11 14:21:26;;;;;;;8.50;3.80;;;;;;;-7.69;100.00;102144.45;108425;1264;74803;-80
2023/01/11 14:24:13;;;;;;;12.80;4.40;;;;;;;-7.68;100.00;102148.35;108442;1263;61368;-80
2023/01/11 14:27:11;;;;;;;12.20;4.80;;;;;;;-7.66;100.00;102154.80;108368;1263;62093;-81
2023/01/11 14:30:23;;;;;;;8.50;4.10;;;;;;;-7.66;100.00;102153.73;108543;1264;74850;-79
2023/01/11 14:33:43;;;;;;;9.90;4.50;;;;;;;-7.67;100.00;102155.37;108605;1263;69075;-80
2023/01/11 14:36:56;;;;;;;6.10;3.40;;;;;;;-7.69;100.00;102161.59;108536;1264;72826;-80
2023/01/11 14:39:47;;;;;;;7.70;3.30;;;;;;;-7.69;100.00;102156.27;108452;1265;63873;-80
2023/01/11 14:42:59;;;;;;;13.10;5.10;;;;;;;-7.68;100.00;102160.09;108467;1264;62692;-79
2023/01/11 14:45:59;;;;;;;10.20;4.30;;;;;;;-7.68;100.00;102166.98;108531;1264;74484;-80
2023/01/11 14:48:47;;;;;;;17.90;5.20;;;;;;;-7.67;100.00;102170.29;108535;1265;69764;-80
2023/01/11 14:51:47;;;;;;;11.30;4.30;;;;;;;-7.68;100.00;102171.38;109292;1253;72864;-80
2023/01/11 14:54:40;;;;;;;20.90;6.50;;;;;;;-7.69;100.00;102174.67;109281;1254;61506;-79
2023/01/11 14:57:38;;;;;;;18.00;6.80;;;;;;;-7.72;100.00;102172.58;109228;1252;60627;-79
2023/01/11 15:00:26;;;;;;;17.80;6.80;;;;;;;-7.74;100.00;102171.19;109261;1252;75255;-80
2023/01/11 15:03:18;;;;;;;16.90;6.30;;;;;;;-7.78;100.00;102169.31;109526;1254;71133;-79
2023/01/11 15:06:12;;;;;;;14.40;5.60;;;;;;;-7.81;100.00;102169.70;109473;1254;74792;-80
2023/01/11 15:09:00;;;;;;;18.80;6.10;;;;;;;-7.85;100.00;102165.05;109267;1253;62895;-81
2023/01/11 15:11:47;;;;;;;22.00;6.70;;;;;;;-7.87;100.00;102158.48;109286;1253;61383;-80
2023/01/11 15:14:36;;;;;;;18.00;5.90;;;;;;;-7.88;100.00;102164.77;109255;1254;75023;-80
2023/01/11 15:20:32;;;;;;;20.70;7.50;;;;;;;-7.85;100.00;102165.21;109134;1254;74904;-81
2023/01/11 15:23:20;;;;;;;19.70;7.40;;;;;;;-7.84;100.00;102158.09;109247;1253;62140;-80
2023/01/11 15:26:08;;;;;;;24.10;7.00;;;;;;;-7.84;100.00;102167.98;108979;1256;61295;-80
2023/01/11 15:28:59;;;;;;;11.30;5.70;;;;;;;-7.85;100.00;102164.00;109159;1254;74460;-79
2023/01/11 15:31:53;;;;;;;20.90;7.40;;;;;;;-7.85;100.00;102156.90;109088;1254;69002;-79
2023/01/11 15:34:43;;;;;;;25.60;6.80;;;;;;;-7.86;100.00;102152.91;109276;1253;74676;-80
2023/01/11 15:37:59;;;;;;;16.30;6.40;;;;;;;-7.87;100.00;102158.30;109384;1254;60698;-80
2023/01/11 15:40:46;;;;;;;20.10;6.70;;;;;;;-7.89;100.00;102163.80;109274;1254;61291;-79
2023/01/11 15:44:05;;;;;;;28.20;10.40;;;;;;;-7.91;100.00;102171.39;109287;1251;76108;-79
2023/01/11 15:47:20;;;;;;;27.90;10.70;;;;;;;-7.96;100.00;102173.53;109276;1253;69845;-80
2023/01/11 15:50:14;;;;;;;37.10;11.90;;;;;;;-8.02;100.00;102168.30;109240;1253;73523;-80
2023/01/11 15:53:14;;;;;;;43.10;11.70;;;;;;;-8.05;100.00;102171.16;109116;1253;64280;-79
2023/01/11 15:56:15;;;;;;;31.00;10.90;;;;;;;-8.06;100.00;102174.27;109224;1253;61419;-80
2023/01/11 19:06:19;;;;;;;16.50;7.70;;;;;;;-10.03;100.00;102121.84;105630;1291;601158;-79
2023/01/11 19:09:07;;;;;;;26.70;10.90;;;;;;;-10.00;100.00;102120.94;108288;1266;62682;-79
2023/01/11 19:11:54;;;;;;;21.40;8.00;;;;;;;-9.97;100.00;102121.02;108312;1266;61318;-79
2023/01/11 19:14:42;;;;;;;32.30;12.80;;;;;;;-9.92;100.00;102126.42;108288;1266;74421;-80
2023/01/11 19:17:30;;;;;;;28.50;10.70;;;;;;;-9.86;100.00;102123.15;108370;1266;70053;-80
2023/01/11 19:20:17;;;;;;;27.60;13.00;;;;;;;-9.78;100.00;102127.16;108250;1265;195277;-79
2023/01/11 19:23:05;;;;;;;27.00;12.40;;;;;;;-9.70;100.00;102125.42;108452;1266;63220;-80
2023/01/11 19:25:57;;;;;;;26.90;9.30;;;;;;;-9.60;100.00;102132.62;108426;1265;62464;-80
2023/01/11 19:28:44;;;;;;;18.30;8.60;;;;;;;-9.52;100.00;102129.80;108495;1266;74398;-80
2023/01/11 19:31:32;;;;;;;24.00;9.80;;;;;;;-9.45;100.00;102129.30;108462;1266;70096;-80
2023/01/11 19:34:19;;;;;;;18.30;8.20;;;;;;;-9.42;100.00;102123.13;108461;1265;74920;-79
2023/01/11 19:37:07;;;;;;;27.00;9.10;;;;;;;-9.41;100.00;102125.70;108554;1266;60510;-80
2023/01/11 19:39:55;;;;;;;18.20;8.40;;;;;;;-9.39;100.00;102129.73;108514;1265;62504;-80
2023/01/11 19:42:44;;;;;;;14.70;6.80;;;;;;;-9.38;100.00;102131.25;108459;1266;75294;-80
2023/01/11 19:45:32;;;;;;;21.70;8.90;;;;;;;-9.37;100.00;102127.14;108431;1266;70933;-80
2023/01/11 19:48:19;;;;;;;14.90;7.10;;;;;;;-9.38;100.00;102120.69;108480;1268;75440;-80
2023/01/11 19:51:09;;;;;;;17.00;6.60;;;;;;;-9.39;100.00;102116.21;108334;1266;63946;-79
2023/01/11 19:53:56;;;;;;;14.00;7.60;;;;;;;-9.39;100.00;102114.27;108927;1257;62865;-79
2023/01/11 19:56:44;;;;;;;31.10;11.90;;;;;;;-9.39;100.00;102116.55;108919;1260;75595;-80
2023/01/11 19:59:32;;;;;;;20.50;8.70;;;;;;;-9.38;100.00;102114.73;108914;1260;70045;-80
2023/01/11 20:02:19;;;;;;;13.00;6.90;;;;;;;-9.35;100.00;102108.97;108812;1257;74321;-80
2023/01/11 20:05:07;;;;;;;11.80;6.60;;;;;;;-9.27;100.00;102112.15;108889;1257;63291;-79
2023/01/11 20:07:55;;;;;;;15.00;6.70;;;;;;;-9.18;100.00;102117.31;108882;1257;62266;-80
2023/01/11 20:10:43;;;;;;;13.90;6.30;;;;;;;-9.11;100.00;102117.88;108868;1256;74128;-79
2023/01/11 20:13:30;;;;;;;12.50;5.80;;;;;;;-9.08;100.00;102117.31;108878;1257;70725;-80
2023/01/11 20:16:19;;;;;;;12.80;5.40;;;;;;;-9.05;100.00;102124.55;108894;1257;75139;-80
2023/01/11 20:19:07;;;;;;;16.40;5.80;;;;;;;-9.03;100.00;102123.66;108857;1259;61086;-80
2023/01/11 20:21:55;;;;;;;12.60;5.00;;;;;;;-8.97;100.00;102128.16;108948;1257;61262;-79
2023/01/11 20:24:42;;;;;;;16.40;4.70;;;;;;;-8.89;100.00;102123.19;108931;1257;75986;-79
2023/01/11 20:27:30;;;;;;;11.90;4.30;;;;;;;-8.84;100.00;102115.27;108889;1257;71102;-79
2023/01/11 20:30:17;;;;;;;14.40;5.60;;;;;;;-8.77;100.00;102118.95;108793;1257;74863;-80
2023/01/11 20:33:08;;;;;;;10.80;5.40;;;;;;;-8.70;100.00;102116.14;108935;1257;63562;-80
2023/01/11 20:35:55;;;;;;;11.90;5.20;;;;;;;-8.63;100.00;102120.74;108889;1257;63054;-80
2023/01/11 20:38:44;;;;;;;13.40;6.80;;;;;;;-8.57;100.00;102115.73;108850;1256;75176;-80
2023/01/11 20:41:47;;;;;;;7.40;3.90;;;;;;;-8.53;100.00;102115.58;108905;1257;71023;-80
2023/01/11 20:44:34;;;;;;;10.10;4.90;;;;;;;-8.46;100.00;102117.16;108820;1257;74139;-80
2023/01/11 20:47:22;;;;;;;15.60;5.40;;;;;;;-8.38;100.00;102119.97;108892;1259;59444;-80
2023/01/11 20:50:10;;;;;;;12.90;4.90;;;;;;;-8.33;100.00;102116.57;108866;1257;59832;-79
2023/01/11 20:52:59;;;;;;;9.80;4.30;;;;;;;-8.31;100.00;102112.14;108875;1257;75565;-80
2023/01/11 20:55:46;;;;;;;8.50;3.70;;;;;;;-8.29;100.00;102107.39;109123;1257;70919;-79
2023/01/11 20:58:34;;;;;;;13.10;4.50;;;;;;;-8.25;100.00;102115.58;108975;1257;75000;-80
2023/01/11 21:01:25;;;;;;;10.20;4.30;;;;;;;-8.23;100.00;102112.23;108848;1257;61501;-80
2023/01/11 21:04:13;;;;;;;8.40;4.10;;;;;;;-8.23;100.00;102110.80;108850;1257;61454;-81
2023/01/11 21:07:01;;;;;;;7.70;3.30;;;;;;;-8.19;100.00;102113.56;108909;1257;74002;-80
2023/01/11 21:09:49;;;;;;;7.40;2.80;;;;;;;-8.14;100.00;102111.25;108882;1258;69611;-80
2023/01/11 21:12:36;;;;;;;5.90;3.90;;;;;;;-8.12;100.00;102100.06;108885;1257;73761;-80
2023/01/11 21:15:27;;;;;;;8.70;3.50;;;;;;;-8.08;100.00;102098.05;108898;1257;62817;-80
2023/01/11 21:18:15;;;;;;;6.40;3.50;;;;;;;-8.07;100.00;102098.79;108909;1257;62478;-79
2023/01/11 21:21:03;;;;;;;8.30;2.80;;;;;;;-8.06;100.00;102093.80;108864;1257;73708;-81
2023/01/11 21:23:58;;;;;;;7.50;2.50;;;;;;;-8.03;100.00;102100.33;108818;1257;71779;-80
2023/01/11 21:26:47;;;;;;;6.20;3.00;;;;;;;-8.01;100.00;102095.86;108832;1260;74785;-79
2023/01/11 21:29:34;;;;;;;10.60;2.70;;;;;;;-8.00;100.00;102094.60;108854;1257;59853;-80
2023/01/11 21:32:22;;;;;;;10.80;3.70;;;;;;;-8.00;100.00;102093.81;108920;1257;62191;-80
2023/01/11 21:35:09;;;;;;;14.10;3.80;;;;;;;-7.99;100.00;102087.95;108882;1257;73264;-79
2023/01/11 21:37:57;;;;;;;22.70;5.60;;;;;;;-7.98;100.00;102091.59;108935;1257;69801;-80
2023/01/11 21:40:44;;;;;;;18.60;6.40;;;;;;;-8.00;100.00;102086.30;108887;1257;74791;-79
2023/01/11 21:43:32;;;;;;;11.20;3.90;;;;;;;-8.03;100.00;102090.59;108865;1261;64229;-80
2023/01/11 21:46:19;;;;;;;19.30;6.20;;;;;;;-8.01;100.00;102089.01;108878;1255;61313;-80
2023/01/11 21:49:07;;;;;;;15.20;5.60;;;;;;;-8.01;100.00;102081.74;108909;1261;75648;-80
2023/01/11 21:51:55;;;;;;;13.70;4.40;;;;;;;-8.03;100.00;102082.77;108932;1257;69389;-79
2023/01/11 21:54:42;;;;;;;9.90;3.90;;;;;;;-8.06;100.00;102084.46;108899;1257;74240;-80
2023/01/11 21:57:30;;;;;;;9.90;4.60;;;;;;;-8.08;100.00;102087.21;108879;1257;60682;-80
